Capt Amer — 3FCQ3 — position and weather

sailwx.info

Track history (hours):
 
Tides and Currents Weather Stations Pressure Air Temp Water Temp Dewpoint Dewpoint Depression Visibility Wind Speed Wind Dir Waves Ship Positions

Capt Amer

Last reported at 2016-May-14 22:31 UTC. Time now 2016-May-28 04:06 UTC.
Position N 36°53' E 013°33'.
Warning: this ship's position is 13 days out of date.

Length 113 m; draft 5.1 m.

Type: Cargo ship. MMSI: 373175000.

Date/timePositionNaut miles runAvg speedWind from/ knotsBaromVisibWave heightAir tempDewpointWater temp
2016-May-14 22:31N 36°53' E 013°33'1010.2
2016-May-14 21:33N 36°51' E 013°45'1010.3
2016-May-14 20:33N 36°48' E 013°57'1010.5
2016-May-14 19:33N 36°45' E 014°10'1010.3
2016-May-14 18:33N 36°42' E 014°22'10 9.7
2016-May-14 17:33N 36°39' E 014°34'10 9.7
2016-May-14 16:33N 36°36' E 014°46'30011.0
2016-May-13 13:23N 38°01' E 020°48'910.8
2016-May-13 12:33N 38°04' E 020°58'1311.4
2016-May-13 11:27N 38°10' E 021°12'1011.3
2016-May-13 10:33N 38°15' E 021°23'  
Track history (hours):
 
Tides and Currents Weather Stations Pressure Air Temp Water Temp Dewpoint Dewpoint Depression Visibility Wind Speed Wind Dir Waves Ship Positions

Capt Amer

Last reported at 2016-May-14 22:31 UTC. Time now 2016-May-28 04:06 UTC.
Position N 36°53' E 013°33'.
Warning: this ship's position is 13 days out of date.

Length 113 m; draft 5.1 m.

Type: Cargo ship. MMSI: 373175000.

Date/timePositionNaut miles runAvg speedWind from/ knotsBaromVisibWave heightAir tempDewpointWater temp
2016-May-14 22:31N 36°53' E 013°33'1010.2
2016-May-14 21:33N 36°51' E 013°45'1010.3
2016-May-14 20:33N 36°48' E 013°57'1010.5
2016-May-14 19:33N 36°45' E 014°10'1010.3
2016-May-14 18:33N 36°42' E 014°22'10 9.7
2016-May-14 17:33N 36°39' E 014°34'10 9.7
2016-May-14 16:33N 36°36' E 014°46'30011.0
2016-May-13 13:23N 38°01' E 020°48'910.8
2016-May-13 12:33N 38°04' E 020°58'1311.4
2016-May-13 11:27N 38°10' E 021°12'1011.3
2016-May-13 10:33N 38°15' E 021°23'  

Dump ship's entire track history